Currently 56°F in Riverside (Orangecrest), California, USA
56°F
56°F / 56°F
calm
0.00"
Wednesday, May 22, 2024 12:47 AM PDT

Riverside (Orangecrest), California Weather Summary
Last 36 Hours

Temperature Winds Hourly Humidity Dewpoint
Time Report Norm Report Norm Max Gusts Precip. Rpt. Norm Rpt. Norm Pressure
1Wed 12:47 AM  55.6°F  57°F  calm  2 mph  none  0.00"  80%  75%  49°F  49°F  29.95"
3Wed 12:45 AM  55.6°F  57°F  calm  2 mph  none  ----  79%  75%  49°F  49°F  29.95"
2Wed 12:00 AM  56.5°F  58°F  calm  2 mph  none  0.00"  78%  73%  49°F  49°F  29.95"
Tue 11:00 PM  57.3°F  58°F  calm  2 mph  none  0.00"  76%  71%  50°F  49°F  29.96"
Tue 10:00 PM  58.8°F  60°F  calm  2 mph  none  0.00"  73%  68%  50°F  49°F  29.95"
Tue 09:00 PM  60.5°F  61°F  calm  3 mph  none  0.00"  69%  64%  50°F  49°F  29.93"
Tue 08:00 PM  62.5°F  63°F  calm  4 mph  none  0.00"  64%  59%  50°F  48°F  29.92"
Tue 07:00 PM  65.5°F  66°F  calm  5 mph  none  0.00"  56%  53%  49°F  48°F  29.90"
Tue 06:00 PM  68.7°F  69°F  calm  5 mph  none  0.00"  49%  47%  48°F  47°F  29.89"
Tue 05:00 PM  71.6°F  71°F  calm  5 mph  none  0.00"  45%  44%  48°F  47°F  29.88"
Tue 04:00 PM  72.5°F  72°F  calm  5 mph  none  0.00"  43%  42%  48°F  47°F  29.89"
Tue 03:00 PM  71.3°F  72°F  calm  5 mph  none  0.00"  45%  41%  48°F  46°F  29.91"
Tue 02:00 PM  70.4°F  72°F  calm  5 mph  none  0.00"  46%  42%  48°F  46°F  29.93"
Tue 01:00 PM  68.8°F  70°F  calm  4 mph  none  0.00"  48%  44%  47°F  47°F  29.94"
Tue 12:00 PM  65.6°F  68°F  calm  4 mph  none  0.00"  56%  48%  49°F  47°F  29.96"
Tue 11:00 AM  62.3°F  66°F  calm  3 mph  none  0.00"  63%  53%  49°F  48°F  29.96"
Tue 10:00 AM  59.4°F  64°F  calm  2 mph  none  0.00"  72%  59%  50°F  49°F  29.96"
Tue 09:00 AM  56.6°F  61°F  calm  2 mph  none  0.00"  82%  67%  51°F  50°F  29.96"
Tue 08:00 AM  54.4°F  58°F  calm  2 mph  none  0.00"  85%  74%  50°F  50°F  29.94"
Tue 07:00 AM  53.1°F  56°F  calm  2 mph  none  0.00"  87%  79%  49°F  49°F  29.93"
Tue 06:00 AM  53.0°F  55°F  calm  2 mph  none  0.00"  86%  80%  49°F  49°F  29.93"
Tue 05:00 AM  53.4°F  55°F  calm  1 mph  none  0.00"  84%  80%  48°F  49°F  29.93"
Tue 04:00 AM  54.8°F  55°F  calm  2 mph  none  0.00"  80%  79%  48°F  49°F  29.94"
Tue 03:00 AM  54.1°F  56°F  calm  2 mph  none  0.00"  82%  78%  49°F  49°F  29.93"
Tue 02:00 AM  54.9°F  56°F  calm  2 mph  none  0.00"  82%  77%  49°F  49°F  29.94"
Tue 01:00 AM  54.9°F  57°F  calm  2 mph  none  0.00"  83%  76%  50°F  49°F  29.94"
Tue 12:00 AM  54.7°F  58°F  calm  2 mph  none  0.00"  83%  73%  49°F  49°F  29.96"
Mon 11:00 PM  54.9°F  59°F  calm  2 mph  none  0.00"  80%  71%  49°F  49°F  29.96"
Mon 10:00 PM  55.8°F  60°F  calm  2 mph  none  0.00"  77%  68%  49°F  49°F  29.96"
Mon 09:00 PM  57.7°F  61°F  calm  3 mph  none  0.00"  73%  64%  49°F  49°F  29.93"
Mon 08:00 PM  59.4°F  63°F  calm  4 mph  none  0.00"  68%  59%  48°F  48°F  29.91"
Mon 07:00 PM  62.9°F  66°F  calm  5 mph  none  0.00"  60%  52%  48°F  48°F  29.91"
Mon 06:00 PM  64.9°F  69°F  calm  5 mph  none  0.00"  56%  47%  48°F  47°F  29.91"
Mon 05:00 PM  67.0°F  71°F  calm  6 mph  none  0.00"  52%  44%  48°F  47°F  29.91"
Mon 04:00 PM  66.8°F  72°F  calm  5 mph  none  0.00"  54%  42%  49°F  47°F  29.92"
Mon 03:00 PM  66.8°F  72°F  calm  5 mph  none  0.00"  52%  41%  48°F  46°F  29.94"
Mon 02:00 PM  66.6°F  72°F  calm  5 mph  none  0.00"  51%  42%  47°F  47°F  29.96"
Mon 01:00 PM  66.4°F  70°F  calm  4 mph  none  0.00"  52%  45%  47°F  47°F  29.97"
Mon 12:00 PM  62.9°F  68°F  calm  4 mph  none  0.00"  60%  49%  48°F  48°F  30.00"

  1. Current weather data. No green row appears if the current weather data is also the high or low for the current day.
  2. High temperature for the current day.
  3. Low temperature for the current day.

The Riverside (Orangecrest), California weather pages are a service of WeatherCurrents.
Copyright ©2024  WeatherCurrents. All rights reserved. - Submit questions and comments - Privacy Policy

This page automatically refreshes every 10 minutes.